createdAt,value
2019-03-20T00:00:52.034Z,22.77
2019-03-20T00:03:20.476Z,22.27
2019-03-20T00:05:48.899Z,21.90
2019-03-20T00:08:17.366Z,22.20
2019-03-20T00:10:45.844Z,23.30
2019-03-20T00:13:14.299Z,23.12
2019-03-20T00:15:42.752Z,21.95
2019-03-20T00:18:11.452Z,24.00
2019-03-20T00:20:39.902Z,22.42
2019-03-20T00:23:08.334Z,22.25
2019-03-20T00:25:36.759Z,21.97
2019-03-20T00:28:05.259Z,23.22
2019-03-20T00:30:33.711Z,23.22
2019-03-20T00:33:02.133Z,23.45
2019-03-20T00:35:30.570Z,21.65
2019-03-20T00:37:59.032Z,21.85
2019-03-20T00:40:27.448Z,23.12
2019-03-20T00:42:55.908Z,23.20
2019-03-20T00:45:24.349Z,23.55
2019-03-20T00:47:52.799Z,23.40
2019-03-20T00:50:21.607Z,24.25
2019-03-20T00:52:50.054Z,24.02
2019-03-20T00:55:19.343Z,23.90
2019-03-20T00:57:48.331Z,23.50
2019-03-20T01:00:18.708Z,23.52
2019-03-20T01:02:47.289Z,23.77
2019-03-20T01:05:15.916Z,23.62
2019-03-20T01:07:44.691Z,24.43
2019-03-20T01:10:16.377Z,22.93
2019-03-20T01:12:45.109Z,23.65
2019-03-20T01:15:14.310Z,23.75
2019-03-20T01:17:42.973Z,23.92
2019-03-20T01:20:14.438Z,23.18
2019-03-20T01:22:42.883Z,23.05
2019-03-20T01:25:11.753Z,22.90
2019-03-20T01:27:40.203Z,23.60
2019-03-20T01:30:13.474Z,22.27
2019-03-20T01:32:41.921Z,22.80
2019-03-20T01:35:10.379Z,22.93
2019-03-20T01:37:38.809Z,23.02
2019-03-20T01:40:08.342Z,21.87
2019-03-20T01:42:36.759Z,22.22
2019-03-20T01:45:07.007Z,21.70
2019-03-20T01:47:35.453Z,21.57
2019-03-20T01:50:05.730Z,22.00
2019-03-20T01:52:34.233Z,22.35
2019-03-20T01:55:02.676Z,21.68
2019-03-20T01:57:31.143Z,21.50
2019-03-20T01:59:59.554Z,22.02
2019-03-20T02:02:28.001Z,21.10
2019-03-20T02:04:56.435Z,20.65
2019-03-20T02:07:31.542Z,19.40
2019-03-20T02:12:27.659Z,19.23
2019-03-20T02:14:56.081Z,18.75
2019-03-20T02:17:24.531Z,18.45
2019-03-20T02:19:52.990Z,19.62
2019-03-20T02:22:21.405Z,17.75
2019-03-20T02:24:49.859Z,16.70
2019-03-20T02:27:18.360Z,16.57
2019-03-20T02:29:46.781Z,17.42
2019-03-20T02:32:15.250Z,16.87
2019-03-20T02:34:43.684Z,15.50
2019-03-20T02:37:12.136Z,15.45
2019-03-20T02:39:40.580Z,14.87
2019-03-20T02:42:09.024Z,15.72
2019-03-20T02:44:37.475Z,14.40
2019-03-20T02:47:05.951Z,14.40
2019-03-20T02:49:34.379Z,13.72
2019-03-20T02:52:04.235Z,14.13
2019-03-20T02:54:32.965Z,14.18
2019-03-20T02:57:01.474Z,14.43
2019-03-20T02:59:29.901Z,15.00
2019-03-20T03:01:58.344Z,14.73
2019-03-20T03:04:26.866Z,13.72
2019-03-20T03:06:55.290Z,12.88
2019-03-20T03:09:23.726Z,12.68
2019-03-20T03:11:52.209Z,13.28
2019-03-20T03:14:20.692Z,12.80
2019-03-20T03:16:49.142Z,12.10
2019-03-20T03:19:17.569Z,12.30
2019-03-20T03:21:46.043Z,11.95
2019-03-20T03:24:14.610Z,12.78
2019-03-20T03:26:43.058Z,12.68
2019-03-20T03:29:11.492Z,11.75
2019-03-20T03:31:40.022Z,12.25
2019-03-20T03:34:08.475Z,12.25
2019-03-20T03:36:36.923Z,10.38
2019-03-20T03:39:07.300Z,10.10
2019-03-20T03:41:35.800Z,9.35
2019-03-20T03:44:04.291Z,10.40
2019-03-20T03:46:32.727Z,10.18
2019-03-20T03:49:01.164Z,9.85
2019-03-20T03:51:29.604Z,10.32
2019-03-20T03:53:58.045Z,11.15
2019-03-20T03:56:26.455Z,12.63
2019-03-20T03:58:54.887Z,11.90
2019-03-20T04:01:23.318Z,12.07
2019-03-20T04:03:51.756Z,12.93
2019-03-20T04:06:34.533Z,12.98
2019-03-20T04:08:50.378Z,13.32
2019-03-20T04:11:18.804Z,13.30
2019-03-20T04:13:47.258Z,14.03
2019-03-20T04:16:15.673Z,13.98
2019-03-20T04:18:44.119Z,13.80
2019-03-20T04:21:12.651Z,14.28
2019-03-20T04:23:41.060Z,14.40
2019-03-20T04:26:09.507Z,14.85
2019-03-20T04:28:37.967Z,13.22
2019-03-20T04:31:06.423Z,13.68
2019-03-20T04:33:34.836Z,14.00
2019-03-20T04:36:03.287Z,13.90
2019-03-20T04:38:31.731Z,13.78
2019-03-20T04:41:00.151Z,14.18
2019-03-20T04:43:28.592Z,14.53
2019-03-20T04:45:57.011Z,15.05
2019-03-20T04:48:25.444Z,13.85
2019-03-20T04:50:53.866Z,14.35
2019-03-20T04:53:22.363Z,13.28
2019-03-20T04:55:50.873Z,13.70
2019-03-20T04:58:19.303Z,14.43
2019-03-20T05:00:47.740Z,14.63
2019-03-20T05:03:16.172Z,15.35
2019-03-20T05:05:44.631Z,15.58
2019-03-20T05:08:13.073Z,13.62
2019-03-20T05:10:41.532Z,13.15
2019-03-20T05:13:10.012Z,12.50
2019-03-20T05:15:38.433Z,13.10
2019-03-20T05:18:06.862Z,12.55
2019-03-20T05:20:35.289Z,12.80
2019-03-20T05:23:03.737Z,12.58
2019-03-20T05:25:32.148Z,13.78
2019-03-20T05:28:00.755Z,13.28
2019-03-20T05:30:29.276Z,13.08
2019-03-20T05:32:57.723Z,12.80
2019-03-20T05:35:26.182Z,13.30
2019-03-20T05:37:54.631Z,12.60
2019-03-20T05:40:23.072Z,13.62
2019-03-20T05:42:51.488Z,12.40
2019-03-20T05:45:20.265Z,14.23
2019-03-20T05:47:50.202Z,13.03
2019-03-20T05:50:18.781Z,13.83
2019-03-20T05:52:47.211Z,13.03
2019-03-20T05:55:15.662Z,13.10
2019-03-20T05:57:44.111Z,13.18
2019-03-20T06:00:16.543Z,13.20
2019-03-20T06:02:45.241Z,13.62
2019-03-20T06:05:14.226Z,13.25
2019-03-20T06:07:42.666Z,13.88
2019-03-20T06:10:14.227Z,13.35
2019-03-20T06:12:43.395Z,14.68
2019-03-20T06:15:12.902Z,15.05
2019-03-20T06:17:41.324Z,14.38
2019-03-20T06:20:11.615Z,15.23
2019-03-20T06:22:40.055Z,14.45
2019-03-20T06:25:10.531Z,15.08
2019-03-20T06:27:38.979Z,14.03
2019-03-20T06:30:10.488Z,13.62
2019-03-20T06:32:38.908Z,13.85
2019-03-20T06:35:08.881Z,14.25
2019-03-20T06:37:37.331Z,12.88
2019-03-20T06:40:08.514Z,14.38
2019-03-20T06:42:36.946Z,13.50
2019-03-20T06:45:08.270Z,13.20
2019-03-20T06:47:36.735Z,14.15
2019-03-20T06:50:08.272Z,14.30
2019-03-20T06:52:36.711Z,14.18
2019-03-20T06:55:06.402Z,14.28
2019-03-20T06:57:34.835Z,14.70
2019-03-20T07:00:06.513Z,14.65
2019-03-20T07:02:34.911Z,13.83
2019-03-20T07:05:06.486Z,15.00
2019-03-20T07:07:44.012Z,15.13
2019-03-20T07:10:09.635Z,13.35
2019-03-20T07:12:38.095Z,14.83
2019-03-20T07:15:06.524Z,14.47
2019-03-20T07:17:34.990Z,13.85
2019-03-20T07:20:05.262Z,13.98
2019-03-20T07:22:33.699Z,13.68
2019-03-20T07:25:02.142Z,14.50
2019-03-20T07:27:30.562Z,12.73
2019-03-20T07:29:59.036Z,13.43
2019-03-20T07:32:29.830Z,12.45
2019-03-20T07:34:57.614Z,13.10
2019-03-20T07:37:33.692Z,12.28
2019-03-20T07:40:02.330Z,12.53
2019-03-20T07:42:30.774Z,11.85
2019-03-20T07:44:59.203Z,11.65
2019-03-20T07:47:27.656Z,11.83
2019-03-20T07:49:56.114Z,12.45
2019-03-20T07:52:24.579Z,12.65
2019-03-20T07:54:54.767Z,12.28
2019-03-20T07:57:27.206Z,12.73
2019-03-20T07:59:55.644Z,11.12
2019-03-20T08:02:24.071Z,12.47
2019-03-20T08:04:52.548Z,11.65
2019-03-20T08:07:21.064Z,12.00
2019-03-20T08:09:49.521Z,11.40
2019-03-20T08:12:17.977Z,11.65
2019-03-20T08:14:46.403Z,12.33
2019-03-20T08:17:14.926Z,13.10
2019-03-20T08:19:43.386Z,12.23
2019-03-20T08:22:11.838Z,11.35
2019-03-20T08:24:40.278Z,11.97
2019-03-20T08:27:08.742Z,12.33
2019-03-20T08:29:37.195Z,11.38
2019-03-20T08:32:05.642Z,11.30
2019-03-20T08:34:34.178Z,11.55
2019-03-20T08:37:02.645Z,11.70
2019-03-20T08:39:31.117Z,11.68
2019-03-20T08:41:59.547Z,12.33
2019-03-20T08:44:27.989Z,12.30
2019-03-20T08:46:56.431Z,12.33
2019-03-20T08:49:24.929Z,12.47
2019-03-20T08:51:53.367Z,12.23
2019-03-20T08:54:21.827Z,12.65
2019-03-20T08:56:50.265Z,11.70
2019-03-20T08:59:18.738Z,11.55
2019-03-20T09:01:47.156Z,12.23
2019-03-20T09:04:15.574Z,13.40
2019-03-20T09:06:44.031Z,12.45
2019-03-20T09:09:12.458Z,12.28
2019-03-20T09:11:40.894Z,11.08
2019-03-20T09:14:09.345Z,12.28
2019-03-20T09:16:37.778Z,12.33
2019-03-20T09:19:06.249Z,11.75
2019-03-20T09:21:34.676Z,11.73
2019-03-20T09:24:03.127Z,11.08
2019-03-20T09:26:31.550Z,12.53
2019-03-20T09:29:00.012Z,10.63
2019-03-20T09:31:28.461Z,11.63
2019-03-20T09:33:56.960Z,11.25
2019-03-20T09:36:25.498Z,10.88
2019-03-20T09:38:53.946Z,10.85
2019-03-20T09:41:22.382Z,10.35
2019-03-20T09:43:50.864Z,11.65
2019-03-20T09:46:19.409Z,11.35
2019-03-20T09:48:47.883Z,10.98
2019-03-20T09:51:16.318Z,10.88
2019-03-20T09:53:44.758Z,11.48
2019-03-20T09:56:13.191Z,10.48
2019-03-20T09:58:41.626Z,11.65
2019-03-20T10:01:10.082Z,11.40
2019-03-20T10:03:38.705Z,10.32
2019-03-20T10:06:07.156Z,11.10
2019-03-20T10:08:35.653Z,12.13
2019-03-20T10:11:04.192Z,11.38
2019-03-20T10:13:32.620Z,11.22
2019-03-20T10:16:01.084Z,10.75
2019-03-20T10:18:29.539Z,11.75
2019-03-20T10:20:58.041Z,10.98
2019-03-20T10:23:26.491Z,11.55
2019-03-20T10:25:54.953Z,11.10
2019-03-20T10:28:23.384Z,11.12
2019-03-20T10:30:51.826Z,11.90
2019-03-20T10:33:20.296Z,11.97
2019-03-20T10:35:50.576Z,11.30
2019-03-20T10:38:18.966Z,12.10
2019-03-20T10:40:47.394Z,11.93
2019-03-20T10:43:15.831Z,11.73
2019-03-20T10:45:44.282Z,11.22
2019-03-20T10:48:12.774Z,10.93
2019-03-20T10:50:41.214Z,11.22
2019-03-20T10:53:09.664Z,10.28
2019-03-20T10:55:38.110Z,10.95
2019-03-20T10:58:06.532Z,11.90
2019-03-20T11:00:35.005Z,10.82
2019-03-20T11:03:03.472Z,10.78
2019-03-20T11:05:31.921Z,11.25
2019-03-20T11:08:00.406Z,11.80
2019-03-20T11:10:29.328Z,11.53
2019-03-20T11:12:58.023Z,11.50
2019-03-20T11:15:28.565Z,11.65
2019-03-20T11:17:56.947Z,11.05
2019-03-20T11:20:26.130Z,11.70
2019-03-20T11:22:54.671Z,11.08
2019-03-20T11:25:24.232Z,11.40
2019-03-20T11:27:52.682Z,11.28
2019-03-20T11:30:23.441Z,10.95
2019-03-20T11:32:51.953Z,12.33
2019-03-20T11:35:20.480Z,11.28
2019-03-20T11:37:48.996Z,10.93
2019-03-20T11:40:20.291Z,11.73
2019-03-20T11:42:48.746Z,11.60
2019-03-20T11:45:17.406Z,11.57
2019-03-20T11:47:45.862Z,11.18
2019-03-20T11:50:17.287Z,10.95
2019-03-20T11:52:45.811Z,10.50
2019-03-20T11:55:14.368Z,10.80
2019-03-20T11:57:42.797Z,11.10
2019-03-20T12:00:14.341Z,11.55
2019-03-20T12:02:42.781Z,11.68
2019-03-20T12:05:11.391Z,12.03
2019-03-20T12:07:39.833Z,11.75
2019-03-20T12:10:11.358Z,11.12
2019-03-20T12:12:39.815Z,10.98
2019-03-20T12:15:10.687Z,11.53
2019-03-20T12:17:39.192Z,11.57
2019-03-20T12:22:46.499Z,12.30
2019-03-20T12:25:17.754Z,11.10
2019-03-20T12:27:46.200Z,11.43
2019-03-20T12:30:17.576Z,10.70
2019-03-20T12:32:46.028Z,11.97
2019-03-20T12:35:16.922Z,10.75
2019-03-20T12:37:45.351Z,12.20
2019-03-20T12:40:16.934Z,11.95
2019-03-20T12:42:45.507Z,12.05
2019-03-20T12:45:17.211Z,11.20
2019-03-20T12:47:45.634Z,11.48
2019-03-20T12:50:14.134Z,10.70
2019-03-20T12:52:42.598Z,10.90
2019-03-20T12:55:13.277Z,10.93
2019-03-20T12:57:41.731Z,11.18
2019-03-20T13:00:13.322Z,12.13
2019-03-20T13:02:41.883Z,11.55
2019-03-20T13:05:12.672Z,11.03
2019-03-20T13:07:41.131Z,11.22
2019-03-20T13:10:12.664Z,12.20
2019-03-20T13:12:41.160Z,11.95
2019-03-20T13:15:12.610Z,11.57
2019-03-20T13:17:41.059Z,10.60
2019-03-20T13:20:11.032Z,11.53
2019-03-20T13:22:39.561Z,10.75
2019-03-20T13:25:11.188Z,11.45
2019-03-20T13:27:39.782Z,11.15
2019-03-20T13:30:19.870Z,11.68
2019-03-20T13:32:41.634Z,10.65
2019-03-20T13:35:10.730Z,10.48
2019-03-20T13:37:39.158Z,11.03
2019-03-20T13:40:14.361Z,10.82
2019-03-20T13:42:40.398Z,10.88
2019-03-20T13:45:11.900Z,11.40
2019-03-20T13:47:40.326Z,11.57
2019-03-20T13:50:11.702Z,11.15
2019-03-20T13:52:40.147Z,10.88
2019-03-20T13:55:10.754Z,11.15
2019-03-20T13:57:39.179Z,11.65
2019-03-20T14:00:10.727Z,10.95
2019-03-20T14:02:39.173Z,11.78
2019-03-20T14:05:07.858Z,11.08
2019-03-20T14:07:36.298Z,10.75
2019-03-20T14:10:08.146Z,11.35
2019-03-20T14:12:36.587Z,11.15
2019-03-20T14:15:06.554Z,11.63
2019-03-20T14:17:35.007Z,11.73
2019-03-20T14:20:04.235Z,11.45
2019-03-20T14:22:32.758Z,10.78
2019-03-20T14:25:01.294Z,11.50
2019-03-20T14:27:29.719Z,10.55
2019-03-20T14:29:58.177Z,11.60
2019-03-20T14:32:26.626Z,11.33
2019-03-20T14:34:55.088Z,11.05
2019-03-20T14:37:23.538Z,11.15
2019-03-20T14:39:51.972Z,10.98
2019-03-20T14:42:20.398Z,9.85
2019-03-20T14:44:48.826Z,10.23
2019-03-20T14:47:17.254Z,10.08
2019-03-20T14:49:45.681Z,10.93
2019-03-20T14:52:14.149Z,12.00
2019-03-20T14:54:42.676Z,11.12
2019-03-20T14:57:11.140Z,10.68
2019-03-20T14:59:39.638Z,10.93
2019-03-20T15:02:08.078Z,11.10
2019-03-20T15:04:36.530Z,10.60
2019-03-20T15:07:05.035Z,11.18
2019-03-20T15:09:33.475Z,10.78
2019-03-20T15:12:01.930Z,9.43
2019-03-20T15:14:30.466Z,10.18
2019-03-20T15:16:58.913Z,10.28
2019-03-20T15:19:27.331Z,10.45
2019-03-20T15:21:55.770Z,10.53
2019-03-20T15:24:26.348Z,10.40
2019-03-20T15:26:54.631Z,11.30
2019-03-20T15:29:23.072Z,10.43
2019-03-20T15:31:51.498Z,9.55
2019-03-20T15:34:19.929Z,10.68
2019-03-20T15:36:48.363Z,9.03
2019-03-20T15:39:16.834Z,9.40
2019-03-20T15:41:45.288Z,10.00
2019-03-20T15:44:13.706Z,9.78
2019-03-20T15:46:42.163Z,10.20
2019-03-20T15:49:10.635Z,11.18
2019-03-20T15:51:39.054Z,10.55
2019-03-20T15:54:07.506Z,10.05
2019-03-20T15:56:35.957Z,11.25
2019-03-20T15:59:04.402Z,11.60
2019-03-20T16:01:32.871Z,11.08
2019-03-20T16:04:01.352Z,10.68
2019-03-20T16:06:29.859Z,10.30
2019-03-20T16:08:58.312Z,10.58
2019-03-20T16:11:26.736Z,10.78
2019-03-20T16:13:55.168Z,9.83
2019-03-20T16:16:23.590Z,10.13
2019-03-20T16:18:53.245Z,9.98
2019-03-20T16:21:21.739Z,10.75
2019-03-20T16:23:50.191Z,10.30
2019-03-20T16:26:18.638Z,10.70
2019-03-20T16:28:47.090Z,12.05
2019-03-20T16:31:15.531Z,11.65
2019-03-20T16:33:43.958Z,10.93
2019-03-20T16:36:12.382Z,10.90
2019-03-20T16:38:40.825Z,10.82
2019-03-20T16:41:16.471Z,10.63
2019-03-20T16:43:39.463Z,11.68
2019-03-20T16:46:07.914Z,11.25
2019-03-20T16:48:36.446Z,11.45
2019-03-20T16:51:05.428Z,11.38
2019-03-20T16:53:33.857Z,11.00
2019-03-20T16:56:04.898Z,11.55
2019-03-20T16:58:33.375Z,10.82
2019-03-20T17:01:01.850Z,11.53
2019-03-20T17:03:30.363Z,11.38
2019-03-20T17:05:58.815Z,12.28
2019-03-20T17:08:27.266Z,11.93
2019-03-20T17:10:55.687Z,11.40
2019-03-20T17:13:24.135Z,11.95
2019-03-20T17:15:53.456Z,12.78
2019-03-20T17:18:21.981Z,13.15
2019-03-20T17:20:50.451Z,12.95
2019-03-20T17:23:18.896Z,12.18
2019-03-20T17:25:47.347Z,12.55
2019-03-20T17:28:15.769Z,12.03
2019-03-20T17:30:47.140Z,12.23
2019-03-20T17:33:15.584Z,13.62
2019-03-20T17:35:44.091Z,13.62
2019-03-20T17:38:12.653Z,13.70
2019-03-20T17:40:41.151Z,13.83
2019-03-20T17:43:09.613Z,14.05
2019-03-20T17:45:38.141Z,14.28
2019-03-20T17:48:06.746Z,14.55
2019-03-20T17:50:35.641Z,15.28
2019-03-20T17:53:05.747Z,14.87
2019-03-20T17:55:34.484Z,14.53
2019-03-20T17:58:03.131Z,16.37
2019-03-20T18:00:34.140Z,15.72
2019-03-20T18:03:02.745Z,15.05
2019-03-20T18:05:31.209Z,15.00
2019-03-20T18:07:59.651Z,14.93
2019-03-20T18:10:28.077Z,14.98
2019-03-20T18:12:56.528Z,15.78
2019-03-20T18:15:25.155Z,15.10
2019-03-20T18:17:53.601Z,16.15
2019-03-20T18:20:22.047Z,16.75
2019-03-20T18:22:50.509Z,16.77
2019-03-20T18:25:18.949Z,16.73
2019-03-20T18:28:08.263Z,16.37
2019-03-20T18:30:39.578Z,16.23
2019-03-20T18:33:08.261Z,18.02
2019-03-20T18:35:36.926Z,16.85
2019-03-20T18:38:06.526Z,17.65
2019-03-20T18:40:34.969Z,16.60
2019-03-20T18:43:03.777Z,16.70
2019-03-20T18:45:32.252Z,18.23
2019-03-20T18:48:00.695Z,18.30
2019-03-20T18:50:29.217Z,18.77
2019-03-20T18:52:57.722Z,18.55
2019-03-20T18:55:26.159Z,18.27
2019-03-20T18:57:54.657Z,18.07
2019-03-20T19:00:25.627Z,19.82
2019-03-20T19:03:14.982Z,18.15
2019-03-20T19:05:46.489Z,16.95
2019-03-20T19:08:15.126Z,18.25
2019-03-20T19:10:46.378Z,17.02
2019-03-20T19:13:14.902Z,17.35
2019-03-20T19:15:43.544Z,17.52
2019-03-20T19:18:12.066Z,16.85
2019-03-20T19:20:40.796Z,17.50
2019-03-20T19:23:09.360Z,16.17
2019-03-20T19:25:37.928Z,16.05
2019-03-20T19:28:06.350Z,16.25
2019-03-20T19:30:34.914Z,15.93
2019-03-20T19:33:03.423Z,14.85
2019-03-20T19:35:31.861Z,14.83
2019-03-20T19:38:00.320Z,13.58
2019-03-20T19:40:28.777Z,15.35
2019-03-20T19:42:57.231Z,14.43
2019-03-20T19:45:25.736Z,15.00
2019-03-20T19:47:54.234Z,15.58
2019-03-20T19:50:23.829Z,15.85
2019-03-20T19:52:52.254Z,14.15
2019-03-20T19:55:20.682Z,12.55
2019-03-20T19:57:49.322Z,12.95
2019-03-20T20:00:21.200Z,14.03
2019-03-20T20:02:49.658Z,14.03
2019-03-20T20:05:18.080Z,14.75
2019-03-20T20:07:46.519Z,15.03
2019-03-20T20:10:17.261Z,14.93
2019-03-20T20:12:45.957Z,15.58
2019-03-20T20:15:17.498Z,15.58
2019-03-20T20:17:47.020Z,15.55
2019-03-20T20:20:18.506Z,16.15
2019-03-20T20:22:46.943Z,16.10
2019-03-20T20:25:15.453Z,14.93
2019-03-20T20:27:43.879Z,15.72
2019-03-20T20:30:14.584Z,14.90
2019-03-20T20:32:43.074Z,14.55
2019-03-20T20:35:13.167Z,15.03
2019-03-20T20:37:41.605Z,15.45
2019-03-20T20:40:12.525Z,15.25
2019-03-20T20:42:43.213Z,14.85
2019-03-20T20:45:12.102Z,13.98
2019-03-20T20:47:40.549Z,13.95
2019-03-20T20:50:11.631Z,14.30
2019-03-20T20:52:40.229Z,14.07
2019-03-20T20:55:11.779Z,13.90
2019-03-20T20:57:40.278Z,14.65
2019-03-20T21:03:01.659Z,14.18
2019-03-20T21:05:30.089Z,14.18
2019-03-20T21:07:58.521Z,13.88
2019-03-20T21:10:26.979Z,13.48
2019-03-20T21:12:57.109Z,13.80
2019-03-20T21:15:28.656Z,13.72
2019-03-20T21:18:00.195Z,13.25
2019-03-20T21:20:28.652Z,13.35
2019-03-20T21:23:00.154Z,12.78
2019-03-20T21:25:28.606Z,13.03
2019-03-20T21:28:00.136Z,12.88
2019-03-20T21:30:31.638Z,13.13
2019-03-20T21:35:56.919Z,11.15
2019-03-20T21:38:24.703Z,11.22
2019-03-20T21:40:56.228Z,11.48
2019-03-20T21:43:27.755Z,12.53
2019-03-20T21:45:59.288Z,12.78
2019-03-20T21:48:27.742Z,12.73
2019-03-20T21:50:59.250Z,12.82
2019-03-20T21:53:30.786Z,10.85
2019-03-20T21:56:02.310Z,10.03
2019-03-20T21:58:33.894Z,10.25
2019-03-20T22:01:05.491Z,9.45
2019-03-20T22:03:33.929Z,10.10
2019-03-20T22:06:05.485Z,8.65
2019-03-20T22:08:33.959Z,9.50
2019-03-20T22:11:05.486Z,9.48
2019-03-20T22:13:37.101Z,8.98
2019-03-20T22:16:08.666Z,9.88
2019-03-20T22:18:40.187Z,9.50
2019-03-20T22:21:11.791Z,10.15
2019-03-20T22:23:43.326Z,11.68
2019-03-20T22:26:14.863Z,11.95
2019-03-20T22:28:46.374Z,11.93
2019-03-20T22:31:14.815Z,11.95
2019-03-20T22:33:46.355Z,11.73
2019-03-20T22:36:15.082Z,11.43
2019-03-20T22:38:46.586Z,12.00
2019-03-20T22:41:18.111Z,11.60
2019-03-20T22:43:49.614Z,12.28
2019-03-20T22:46:21.220Z,12.25
2019-03-20T22:48:52.770Z,12.03
2019-03-20T22:51:24.289Z,12.03
2019-03-20T22:53:55.803Z,12.45
2019-03-20T22:56:27.339Z,11.73
2019-03-20T22:58:55.767Z,12.68
2019-03-20T23:01:27.325Z,13.03
2019-03-20T23:03:58.911Z,13.60
2019-03-20T23:06:27.623Z,12.40
2019-03-20T23:08:56.060Z,11.15
2019-03-20T23:11:24.532Z,12.55
2019-03-20T23:13:53.086Z,11.45
2019-03-20T23:16:42.406Z,11.95
2019-03-20T23:19:10.875Z,11.25
2019-03-20T23:21:39.326Z,11.43
2019-03-20T23:24:07.864Z,12.00
2019-03-20T23:26:36.383Z,11.68
2019-03-20T23:29:04.907Z,11.55
2019-03-20T23:31:33.331Z,11.65
2019-03-20T23:34:01.782Z,10.48
2019-03-20T23:36:30.235Z,9.95
2019-03-20T23:38:58.666Z,10.03
2019-03-20T23:41:27.120Z,9.53
2019-03-20T23:43:55.559Z,9.65
2019-03-20T23:46:23.978Z,8.98
2019-03-20T23:48:55.650Z,10.00
2019-03-20T23:51:27.024Z,10.28
2019-03-20T23:53:56.014Z,10.93
2019-03-20T23:56:25.999Z,11.50
2019-03-20T23:58:54.443Z,11.97
